createdAt,value
2023-02-26T00:01:43.258Z,89.60
2023-02-26T00:04:11.675Z,89.80
2023-02-26T00:06:52.963Z,89.70
2023-02-26T00:09:23.279Z,89.80
2023-02-26T00:11:53.259Z,89.70
2023-02-26T00:14:21.533Z,89.70
2023-02-26T00:16:56.847Z,89.70
2023-02-26T00:19:25.122Z,89.70
2023-02-26T00:21:53.590Z,89.70
2023-02-26T00:24:21.374Z,89.60
2023-02-26T00:26:49.584Z,89.50
2023-02-26T00:29:19.647Z,89.60
2023-02-26T00:31:48.347Z,89.60
2023-02-26T00:34:16.902Z,89.50
2023-02-26T00:36:51.632Z,89.50
2023-02-26T00:39:35.103Z,89.50
2023-02-26T00:42:05.061Z,89.40
2023-02-26T00:44:36.792Z,89.40
2023-02-26T00:47:10.908Z,89.40
2023-02-26T00:49:50.859Z,89.40
2023-02-26T00:52:27.597Z,89.30
2023-02-26T00:54:55.518Z,89.40
2023-02-26T00:57:23.542Z,89.30
2023-02-26T00:59:52.814Z,90.00
2023-02-26T01:02:20.963Z,89.30
2023-02-26T01:04:49.286Z,89.40
2023-02-26T01:07:22.363Z,89.30
2023-02-26T01:09:51.474Z,89.30
2023-02-26T01:12:19.942Z,89.40
2023-02-26T01:14:48.292Z,89.40
2023-02-26T01:17:22.848Z,89.40
2023-02-26T01:19:54.347Z,89.50
2023-02-26T01:22:26.659Z,89.50
2023-02-26T01:25:02.614Z,89.60
2023-02-26T01:27:31.436Z,89.90
2023-02-26T01:29:59.670Z,90.00
2023-02-26T01:32:45.648Z,90.10
2023-02-26T01:35:25.083Z,90.20
2023-02-26T01:38:01.194Z,90.20
2023-02-26T01:40:49.636Z,90.20
2023-02-26T01:43:24.050Z,90.20
2023-02-26T01:46:00.012Z,90.10
2023-02-26T01:48:38.312Z,90.10
2023-02-26T01:51:06.919Z,90.10
2023-02-26T01:53:34.778Z,90.10
2023-02-26T01:56:07.464Z,90.00
2023-02-26T01:58:38.333Z,90.00
2023-02-26T02:01:07.419Z,90.00
2023-02-26T02:03:39.582Z,90.00
2023-02-26T02:06:09.434Z,90.00
2023-02-26T02:08:38.087Z,90.00
2023-02-26T02:11:09.500Z,89.80
2023-02-26T02:13:44.388Z,90.20
2023-02-26T02:16:22.013Z,89.70
2023-02-26T02:18:58.868Z,89.60
2023-02-26T02:21:45.446Z,89.80
2023-02-26T02:24:18.796Z,89.70
2023-02-26T02:27:01.072Z,89.70
2023-02-26T02:30:06.456Z,89.80
2023-02-26T02:32:40.650Z,89.70
2023-02-26T02:35:16.714Z,89.60
2023-02-26T02:37:49.620Z,89.60
2023-02-26T02:40:21.238Z,89.50
2023-02-26T02:42:54.367Z,89.50
2023-02-26T02:45:27.647Z,89.50
2023-02-26T02:48:01.958Z,89.50
2023-02-26T02:50:35.288Z,89.40
2023-02-26T02:53:08.744Z,89.40
2023-02-26T02:55:41.376Z,89.30
2023-02-26T02:58:14.508Z,89.30
2023-02-26T03:00:47.301Z,89.20
2023-02-26T03:03:22.124Z,89.20
2023-02-26T03:05:50.309Z,89.10
2023-02-26T03:08:21.690Z,89.10
2023-02-26T03:10:49.611Z,89.10
2023-02-26T03:13:18.963Z,89.10
2023-02-26T03:15:57.148Z,89.30
2023-02-26T03:18:36.804Z,89.30
2023-02-26T03:21:09.760Z,89.40
2023-02-26T03:23:46.824Z,89.30
2023-02-26T03:26:20.607Z,89.20
2023-02-26T03:28:54.947Z,89.30
2023-02-26T03:31:30.729Z,89.30
2023-02-26T03:34:04.826Z,89.50
2023-02-26T03:36:37.317Z,89.50
2023-02-26T03:39:10.239Z,89.40
2023-02-26T03:41:44.038Z,89.40
2023-02-26T03:44:15.515Z,89.40
2023-02-26T03:46:52.017Z,89.30
2023-02-26T03:49:27.556Z,89.30
2023-02-26T03:51:56.643Z,89.30
2023-02-26T03:54:43.897Z,89.30
2023-02-26T03:57:18.147Z,89.40
2023-02-26T03:59:51.773Z,89.60
2023-02-26T04:02:25.634Z,89.70
2023-02-26T04:04:59.698Z,89.60
2023-02-26T04:07:28.104Z,89.70
2023-02-26T04:09:56.234Z,89.60
2023-02-26T04:12:25.599Z,89.60
2023-02-26T04:14:53.749Z,89.60
2023-02-26T04:17:21.668Z,89.50
2023-02-26T04:19:49.478Z,89.40
2023-02-26T04:22:18.779Z,89.40
2023-02-26T04:24:48.987Z,89.40
2023-02-26T04:27:16.759Z,89.40
2023-02-26T04:29:44.659Z,89.30
2023-02-26T04:32:12.503Z,89.30
2023-02-26T04:34:40.894Z,89.40
2023-02-26T04:37:10.962Z,89.30
2023-02-26T04:39:40.440Z,89.40
2023-02-26T04:42:08.801Z,89.40
2023-02-26T04:44:37.190Z,89.40
2023-02-26T04:47:05.555Z,89.30
2023-02-26T04:49:33.663Z,89.20
2023-02-26T04:52:01.756Z,89.10
2023-02-26T04:54:29.606Z,89.00
2023-02-26T04:57:00.385Z,89.10
2023-02-26T04:59:28.202Z,89.20
2023-02-26T05:01:56.214Z,89.20
2023-02-26T05:04:24.234Z,89.20
2023-02-26T05:06:52.457Z,89.20
2023-02-26T05:09:20.346Z,89.20
2023-02-26T05:11:49.049Z,89.20
2023-02-26T05:14:18.604Z,89.90
2023-02-26T05:16:46.757Z,89.10
2023-02-26T05:19:14.836Z,89.10
2023-02-26T05:21:42.907Z,89.10
2023-02-26T05:24:10.790Z,89.20
2023-02-26T05:26:39.709Z,89.40
2023-02-26T05:29:07.863Z,89.40
2023-02-26T05:31:37.191Z,89.40
2023-02-26T05:34:05.117Z,89.30
2023-02-26T05:36:33.139Z,89.30
2023-02-26T05:39:00.997Z,89.40
2023-02-26T05:41:29.152Z,89.20
2023-02-26T05:43:56.964Z,89.20
2023-02-26T05:46:25.273Z,89.10
2023-02-26T05:48:54.586Z,89.10
2023-02-26T05:51:24.838Z,89.10
2023-02-26T05:53:52.662Z,89.10
2023-02-26T05:56:20.551Z,89.10
2023-02-26T05:58:48.520Z,89.10
2023-02-26T06:01:16.675Z,89.00
2023-02-26T06:03:45.286Z,89.00
2023-02-26T06:06:16.290Z,89.00
2023-02-26T06:08:44.197Z,89.00
2023-02-26T06:11:12.677Z,89.00
2023-02-26T06:13:41.908Z,89.20
2023-02-26T06:16:09.837Z,89.20
2023-02-26T06:18:37.839Z,89.20
2023-02-26T06:21:06.889Z,89.20
2023-02-26T06:23:38.903Z,89.30
2023-02-26T06:26:07.445Z,89.20
2023-02-26T06:28:35.585Z,89.20
2023-02-26T06:31:03.922Z,89.10
2023-02-26T06:33:31.808Z,89.10
2023-02-26T06:36:00.549Z,89.10
2023-02-26T06:38:28.528Z,89.10
2023-02-26T06:40:57.847Z,89.20
2023-02-26T06:43:25.678Z,89.10
2023-02-26T06:45:53.916Z,89.30
2023-02-26T06:48:21.783Z,89.30
2023-02-26T06:50:49.933Z,89.40
2023-02-26T06:53:17.794Z,89.40
2023-02-26T06:55:48.305Z,89.50
2023-02-26T06:58:17.506Z,89.50
2023-02-26T07:00:48.384Z,89.40
2023-02-26T07:03:18.806Z,89.50
2023-02-26T07:05:47.367Z,89.70
2023-02-26T07:08:15.851Z,89.80
2023-02-26T07:10:48.459Z,89.90
2023-02-26T07:13:20.457Z,90.00
2023-02-26T07:15:51.537Z,90.00
2023-02-26T07:18:20.967Z,90.10
2023-02-26T07:20:51.934Z,90.30
2023-02-26T07:23:20.176Z,90.30
2023-02-26T07:25:50.773Z,90.40
2023-02-26T07:28:20.634Z,90.40
2023-02-26T07:30:50.187Z,90.40
2023-02-26T07:33:18.282Z,90.40
2023-02-26T07:35:46.184Z,90.40
2023-02-26T07:38:14.031Z,90.30
2023-02-26T07:40:42.238Z,90.10
2023-02-26T07:43:10.128Z,90.10
2023-02-26T07:45:41.145Z,90.00
2023-02-26T07:48:09.022Z,90.00
2023-02-26T07:50:36.990Z,90.00
2023-02-26T07:53:05.980Z,90.00
2023-02-26T07:55:33.863Z,90.00
2023-02-26T07:58:02.506Z,89.90
2023-02-26T08:00:30.522Z,89.90
2023-02-26T08:02:59.719Z,90.00
2023-02-26T08:05:30.153Z,90.10
2023-02-26T08:07:58.234Z,90.10
2023-02-26T08:10:26.295Z,90.10
2023-02-26T08:12:54.185Z,90.10
2023-02-26T08:15:21.983Z,90.10
2023-02-26T08:17:52.137Z,90.10
2023-02-26T08:20:21.598Z,90.20
2023-02-26T08:22:51.339Z,90.20
2023-02-26T08:25:19.768Z,90.20
2023-02-26T08:27:47.824Z,90.20
2023-02-26T08:30:16.983Z,90.30
2023-02-26T08:32:46.042Z,90.30
2023-02-26T08:35:15.117Z,90.30
2023-02-26T08:37:44.662Z,90.30
2023-02-26T08:40:15.245Z,90.30
2023-02-26T08:42:43.458Z,90.30
2023-02-26T08:45:12.243Z,90.30
2023-02-26T08:47:53.939Z,90.40
2023-02-26T08:50:24.479Z,90.40
2023-02-26T08:52:54.435Z,90.50
2023-02-26T08:55:22.884Z,90.40
2023-02-26T08:57:50.784Z,90.50
2023-02-26T09:00:19.530Z,90.50
2023-02-26T09:02:48.395Z,90.50
2023-02-26T09:05:16.601Z,90.50
2023-02-26T09:07:45.793Z,90.50
2023-02-26T09:10:16.187Z,90.50
2023-02-26T09:12:44.600Z,90.50
2023-02-26T09:15:14.428Z,90.50
2023-02-26T09:17:42.765Z,90.50
2023-02-26T09:20:12.387Z,90.50
2023-02-26T09:22:40.630Z,90.60
2023-02-26T09:25:09.594Z,90.60
2023-02-26T09:27:38.937Z,90.70
2023-02-26T09:30:08.141Z,90.60
2023-02-26T09:32:36.189Z,90.60
2023-02-26T09:35:05.370Z,90.70
2023-02-26T09:37:34.725Z,90.70
2023-02-26T09:40:03.648Z,90.70
2023-02-26T09:42:49.727Z,90.70
2023-02-26T09:45:26.140Z,90.70
2023-02-26T09:47:55.260Z,90.80
2023-02-26T09:50:29.376Z,90.80
2023-02-26T09:53:05.087Z,90.80
2023-02-26T09:55:39.076Z,90.80
2023-02-26T09:58:23.045Z,90.90
2023-02-26T10:00:57.814Z,90.90
2023-02-26T10:03:31.387Z,90.90
2023-02-26T10:06:16.600Z,91.00
2023-02-26T10:08:51.159Z,91.00
2023-02-26T10:11:30.720Z,91.10
2023-02-26T10:14:04.818Z,91.10
2023-02-26T10:16:38.458Z,91.00
2023-02-26T10:19:09.455Z,91.10
2023-02-26T10:21:41.359Z,91.20
2023-02-26T10:24:16.663Z,91.20
2023-02-26T10:26:47.625Z,91.10
2023-02-26T10:29:23.450Z,91.10
2023-02-26T10:32:03.904Z,91.10
2023-02-26T10:34:43.156Z,91.10
2023-02-26T10:37:19.820Z,91.20
2023-02-26T10:39:54.144Z,91.20
2023-02-26T10:42:24.612Z,91.10
2023-02-26T10:45:03.577Z,91.10
2023-02-26T10:47:44.511Z,91.00
2023-02-26T10:50:16.059Z,91.00
2023-02-26T10:52:46.017Z,91.00
2023-02-26T10:55:35.214Z,91.10
2023-02-26T10:58:07.002Z,91.10
2023-02-26T11:00:36.464Z,91.40
2023-02-26T11:03:05.836Z,91.40
2023-02-26T11:05:35.343Z,91.60
2023-02-26T11:08:06.893Z,91.60
2023-02-26T11:10:42.604Z,91.50
2023-02-26T11:13:11.077Z,91.40
2023-02-26T11:15:41.324Z,91.50
2023-02-26T11:18:17.100Z,91.40
2023-02-26T11:20:47.693Z,91.20
2023-02-26T11:23:25.705Z,91.00
2023-02-26T11:25:56.096Z,91.00
2023-02-26T11:28:30.881Z,91.00
2023-02-26T11:31:02.678Z,91.10
2023-02-26T11:33:37.676Z,91.30
2023-02-26T11:36:10.448Z,91.50
2023-02-26T11:38:40.081Z,91.50
2023-02-26T11:41:08.703Z,91.50
2023-02-26T11:43:44.444Z,91.60
2023-02-26T11:46:15.490Z,91.50
2023-02-26T11:48:45.598Z,91.30
2023-02-26T11:51:16.833Z,91.30
2023-02-26T11:53:50.514Z,91.20
2023-02-26T11:56:26.040Z,91.20
2023-02-26T11:58:56.014Z,91.30
2023-02-26T12:01:29.731Z,91.30
2023-02-26T12:04:01.676Z,91.30
2023-02-26T12:06:29.558Z,91.30
2023-02-26T12:08:58.167Z,91.40
2023-02-26T12:11:48.302Z,91.40
2023-02-26T12:14:38.962Z,91.30
2023-02-26T12:17:28.104Z,91.20
2023-02-26T12:20:07.829Z,91.20
2023-02-26T12:22:54.657Z,91.30
2023-02-26T12:25:46.962Z,91.30
2023-02-26T12:28:31.724Z,91.30
2023-02-26T12:31:16.565Z,91.30
2023-02-26T12:33:56.300Z,91.20
2023-02-26T12:36:48.305Z,91.20
2023-02-26T12:39:33.396Z,91.10
2023-02-26T12:42:23.395Z,91.10
2023-02-26T12:45:18.717Z,91.10
2023-02-26T12:47:58.850Z,91.30
2023-02-26T12:50:42.035Z,91.40
2023-02-26T12:53:48.386Z,91.50
2023-02-26T12:56:41.111Z,91.40
2023-02-26T12:59:22.079Z,91.30
2023-02-26T13:02:02.206Z,91.30
2023-02-26T13:04:58.857Z,91.30
2023-02-26T13:07:49.934Z,91.30
2023-02-26T13:10:28.086Z,91.30
2023-02-26T13:13:13.345Z,91.20
2023-02-26T13:15:54.468Z,91.20
2023-02-26T13:18:28.025Z,91.10
2023-02-26T13:21:00.644Z,91.20
2023-02-26T13:23:35.998Z,91.30
2023-02-26T13:26:09.645Z,91.30
2023-02-26T13:28:42.290Z,91.30
2023-02-26T13:31:13.482Z,91.30
2023-02-26T13:33:42.605Z,91.30
2023-02-26T13:36:11.519Z,91.40
2023-02-26T13:38:51.552Z,91.40
2023-02-26T13:41:28.243Z,91.40
2023-02-26T13:44:26.761Z,91.40
2023-02-26T13:47:16.877Z,91.40
2023-02-26T13:49:56.591Z,91.40
2023-02-26T13:52:27.716Z,91.30
2023-02-26T13:54:59.471Z,91.30
2023-02-26T13:57:37.648Z,91.30
2023-02-26T14:00:23.528Z,91.40
2023-02-26T14:02:57.352Z,91.40
2023-02-26T14:05:59.410Z,91.40
2023-02-26T14:08:45.167Z,91.30
2023-02-26T14:11:46.031Z,91.30
2023-02-26T14:14:18.690Z,91.30
2023-02-26T14:16:51.784Z,91.30
2023-02-26T14:19:29.235Z,91.20
2023-02-26T14:21:59.028Z,91.10
2023-02-26T14:24:36.623Z,91.20
2023-02-26T14:27:34.751Z,91.20
2023-02-26T14:30:18.173Z,91.20
2023-02-26T14:32:51.025Z,91.20
2023-02-26T14:35:23.473Z,91.20
2023-02-26T14:37:59.651Z,91.20
2023-02-26T14:40:30.612Z,91.30
2023-02-26T14:43:04.236Z,91.30
2023-02-26T14:45:35.876Z,91.20
2023-02-26T14:48:06.890Z,91.10
2023-02-26T14:50:53.846Z,91.40
2023-02-26T14:53:58.913Z,91.00
2023-02-26T14:56:34.758Z,91.00
2023-02-26T14:59:21.728Z,91.00
2023-02-26T15:01:55.484Z,91.00
2023-02-26T15:04:58.275Z,90.90
2023-02-26T15:07:44.671Z,90.80
2023-02-26T15:10:29.345Z,90.80
2023-02-26T15:13:14.318Z,90.80
2023-02-26T15:15:53.763Z,90.90
2023-02-26T15:18:43.390Z,91.00
2023-02-26T15:21:18.955Z,91.10
2023-02-26T15:23:50.703Z,91.10
2023-02-26T15:26:22.102Z,91.10
2023-02-26T15:28:51.066Z,91.10
2023-02-26T15:31:28.632Z,91.10
2023-02-26T15:33:58.204Z,91.00
2023-02-26T15:36:27.389Z,90.90
2023-02-26T15:38:57.498Z,90.80
2023-02-26T15:41:28.351Z,90.70
2023-02-26T15:44:00.615Z,90.60
2023-02-26T15:46:33.452Z,90.60
2023-02-26T15:49:06.267Z,90.50
2023-02-26T15:51:34.669Z,90.50
2023-02-26T15:54:05.207Z,90.60
2023-02-26T15:56:36.894Z,90.50
2023-02-26T15:59:16.324Z,90.50
2023-02-26T16:01:45.721Z,90.50
2023-02-26T16:04:19.009Z,90.50
2023-02-26T16:06:48.637Z,90.50
2023-02-26T16:09:21.514Z,90.60
2023-02-26T16:11:50.846Z,90.70
2023-02-26T16:14:24.752Z,90.80
2023-02-26T16:16:57.822Z,90.80
2023-02-26T16:19:35.841Z,90.80
2023-02-26T16:22:12.071Z,91.00
2023-02-26T16:24:41.253Z,90.70
2023-02-26T16:27:14.835Z,90.70
2023-02-26T16:29:51.254Z,90.60
2023-02-26T16:32:22.280Z,90.60
2023-02-26T16:34:53.112Z,90.50
2023-02-26T16:37:28.246Z,90.50
2023-02-26T16:39:59.761Z,90.50
2023-02-26T16:42:44.637Z,90.50
2023-02-26T16:45:23.660Z,90.70
2023-02-26T16:47:55.265Z,90.50
2023-02-26T16:50:28.859Z,90.50
2023-02-26T16:53:02.337Z,90.50
2023-02-26T16:55:35.023Z,90.50
2023-02-26T16:58:07.825Z,90.50
2023-02-26T17:00:37.607Z,90.50
2023-02-26T17:03:12.273Z,90.40
2023-02-26T17:05:44.173Z,90.40
2023-02-26T17:08:19.421Z,90.30
2023-02-26T17:10:51.776Z,90.20
2023-02-26T17:13:24.903Z,90.20
2023-02-26T17:15:54.276Z,90.20
2023-02-26T17:18:23.710Z,90.20
2023-02-26T17:20:52.030Z,90.20
2023-02-26T17:23:22.488Z,90.20
2023-02-26T17:25:57.445Z,90.30
2023-02-26T17:28:28.021Z,90.50
2023-02-26T17:30:56.278Z,90.20
2023-02-26T17:33:25.922Z,90.20
2023-02-26T17:35:59.466Z,90.20
2023-02-26T17:38:27.968Z,90.20
2023-02-26T17:40:58.300Z,90.20
2023-02-26T17:43:28.080Z,90.10
2023-02-26T17:45:58.799Z,90.10
2023-02-26T17:48:28.197Z,90.10
2023-02-26T17:50:59.120Z,90.00
2023-02-26T17:53:28.248Z,90.00
2023-02-26T17:55:56.616Z,90.00
2023-02-26T17:58:29.103Z,90.00
2023-02-26T18:00:57.193Z,90.00
2023-02-26T18:03:25.337Z,89.90
2023-02-26T18:05:56.603Z,90.00
2023-02-26T18:08:32.519Z,89.90
2023-02-26T18:11:04.001Z,89.90
2023-02-26T18:13:35.490Z,89.80
2023-02-26T18:16:03.932Z,89.80
2023-02-26T18:18:33.018Z,89.90
2023-02-26T18:21:05.575Z,89.90
2023-02-26T18:23:34.456Z,90.00
2023-02-26T18:26:03.449Z,90.00
2023-02-26T18:28:31.753Z,90.00
2023-02-26T18:31:00.222Z,90.00
2023-02-26T18:33:28.188Z,90.00
2023-02-26T18:35:58.525Z,89.90
2023-02-26T18:38:29.295Z,89.80
2023-02-26T18:40:58.276Z,89.80
2023-02-26T18:43:26.364Z,89.80
2023-02-26T18:45:55.332Z,89.80
2023-02-26T18:48:24.283Z,89.70
2023-02-26T18:50:55.652Z,89.70
2023-02-26T18:53:24.723Z,89.60
2023-02-26T18:55:58.138Z,89.50
2023-02-26T18:58:28.530Z,89.50
2023-02-26T19:00:56.873Z,89.40
2023-02-26T19:03:25.122Z,89.40
2023-02-26T19:05:59.328Z,89.40
2023-02-26T19:08:27.462Z,89.40
2023-02-26T19:10:57.066Z,89.60
2023-02-26T19:13:25.090Z,89.80
2023-02-26T19:15:53.211Z,89.70
2023-02-26T19:18:23.879Z,89.80
2023-02-26T19:20:52.225Z,89.80
2023-02-26T19:23:20.402Z,89.80
2023-02-26T19:25:48.558Z,89.80
2023-02-26T19:28:17.936Z,89.80
2023-02-26T19:30:45.901Z,89.80
2023-02-26T19:33:13.977Z,89.70
2023-02-26T19:35:43.435Z,89.80
2023-02-26T19:38:13.543Z,89.70
2023-02-26T19:40:42.583Z,89.70
2023-02-26T19:43:10.859Z,89.80
2023-02-26T19:45:40.073Z,89.80
2023-02-26T19:48:08.002Z,89.70
2023-02-26T19:50:36.610Z,89.70
2023-02-26T19:53:04.560Z,89.90
2023-02-26T19:55:32.581Z,89.60
2023-02-26T19:58:00.648Z,89.70
2023-02-26T20:00:28.823Z,89.70
2023-02-26T20:02:58.134Z,89.70
2023-02-26T20:05:26.073Z,89.70
2023-02-26T20:07:54.318Z,89.60
2023-02-26T20:10:23.545Z,89.70
2023-02-26T20:12:51.498Z,89.80
2023-02-26T20:15:19.495Z,89.70
2023-02-26T20:17:47.317Z,89.70
2023-02-26T20:20:17.006Z,89.70
2023-02-26T20:22:44.856Z,89.70
2023-02-26T20:25:12.867Z,89.60
2023-02-26T20:27:40.799Z,89.60
2023-02-26T20:30:11.123Z,89.60
2023-02-26T20:32:39.292Z,89.60
2023-02-26T20:35:07.880Z,89.60
2023-02-26T20:37:37.142Z,89.50
2023-02-26T20:40:06.145Z,89.50
2023-02-26T20:42:34.571Z,89.50
2023-02-26T20:45:02.425Z,89.50
2023-02-26T20:47:30.375Z,89.40
2023-02-26T20:49:58.296Z,89.40
2023-02-26T20:52:26.244Z,89.40
2023-02-26T20:54:55.502Z,89.40
2023-02-26T20:57:23.939Z,89.50
2023-02-26T20:59:51.789Z,89.40
2023-02-26T21:02:20.788Z,90.00
2023-02-26T21:04:49.415Z,89.30
2023-02-26T21:07:21.911Z,89.30
2023-02-26T21:09:50.455Z,89.30
2023-02-26T21:12:20.309Z,89.30
2023-02-26T21:14:51.293Z,89.30
2023-02-26T21:17:19.677Z,89.30
2023-02-26T21:19:48.261Z,89.20
2023-02-26T21:22:18.721Z,89.20
2023-02-26T21:24:46.918Z,89.20
2023-02-26T21:27:16.727Z,89.20
2023-02-26T21:29:46.040Z,89.20
2023-02-26T21:32:14.191Z,89.80
2023-02-26T21:34:42.402Z,89.20
2023-02-26T21:37:12.374Z,89.20
2023-02-26T21:39:40.827Z,89.30
2023-02-26T21:42:11.553Z,89.30
2023-02-26T21:44:39.416Z,89.40
2023-02-26T21:47:09.225Z,89.40
2023-02-26T21:49:37.176Z,89.50
2023-02-26T21:52:06.844Z,89.30
2023-02-26T21:54:35.290Z,89.30
2023-02-26T21:57:03.330Z,89.30
2023-02-26T21:59:31.317Z,89.30
2023-02-26T22:01:59.348Z,89.30
2023-02-26T22:04:28.725Z,89.20
2023-02-26T22:06:56.735Z,89.20
2023-02-26T22:09:24.654Z,89.20
2023-02-26T22:11:52.517Z,89.20
2023-02-26T22:14:20.644Z,90.00
2023-02-26T22:16:48.641Z,89.30
2023-02-26T22:19:16.565Z,89.30
2023-02-26T22:21:45.909Z,89.20
2023-02-26T22:24:13.874Z,89.20
2023-02-26T22:26:42.961Z,89.20
2023-02-26T22:29:11.225Z,89.30
2023-02-26T22:31:39.036Z,89.30
2023-02-26T22:34:07.079Z,89.30
2023-02-26T22:36:36.286Z,89.20
2023-02-26T22:39:06.414Z,89.20
2023-02-26T22:41:35.394Z,89.30
2023-02-26T22:44:03.806Z,89.30
2023-02-26T22:46:32.347Z,89.30
2023-02-26T22:49:00.476Z,89.30
2023-02-26T22:51:30.042Z,89.20
2023-02-26T22:53:58.090Z,89.30
2023-02-26T22:56:27.701Z,89.30
2023-02-26T22:58:56.836Z,89.40
2023-02-26T23:01:25.828Z,89.40
2023-02-26T23:03:53.923Z,89.20
2023-02-26T23:06:21.770Z,89.20
2023-02-26T23:08:49.973Z,89.20
2023-02-26T23:11:18.210Z,89.20
2023-02-26T23:13:47.790Z,89.10
2023-02-26T23:16:16.217Z,89.10
2023-02-26T23:18:45.609Z,89.00
2023-02-26T23:21:13.628Z,89.00
2023-02-26T23:23:41.737Z,89.00
2023-02-26T23:26:09.595Z,88.90
2023-02-26T23:28:37.973Z,89.00
2023-02-26T23:31:07.754Z,89.00
2023-02-26T23:33:35.885Z,89.10
2023-02-26T23:36:03.832Z,89.10
2023-02-26T23:38:31.825Z,89.10
2023-02-26T23:40:59.759Z,89.00
2023-02-26T23:43:27.833Z,89.20
2023-02-26T23:45:55.696Z,89.20
2023-02-26T23:48:25.744Z,89.20
2023-02-26T23:50:53.617Z,89.20
2023-02-26T23:53:21.618Z,89.10
2023-02-26T23:55:51.761Z,89.10
2023-02-26T23:58:19.800Z,89.20
